GYP weather

Gympie Airport
Queensland, Australia

Public forecast

Using degrees Celsius for public forecast. Weather courtesy of forecast.io.

METAR (pilot weather report)

Closest report is Kingaroy Airport, 49.6 nm (91.9 km) WSW. Retrieved 2019/02/19 00:00 UTC (11 minutes ago):

YKRY 190000Z AUTO 04004KT 300V100 9999 // NCD 28/13 Q1011

TAF (pilot weather forecast)

Forecast is more than 6 hours old.

Closest forecast is Brisbane International Airport, 69.8 nm (129.2 km) SSE. Retrieved 2019/02/18 18:00 UTC (6 hours ago):

TAF YBBN 181719Z 1818/1924 20005KT 9999 SCT025 FM182300 13010KT 9999 FEW030 FM190100 06012KT CAVOK FM190900 07008KT 9999 FEW020 FM191500 18006KT 9999 SCT020 FM192300 12010KT 9999 SCT030